Live aus Altenrhein
LIVE
LSZR 221650Z VRB02KT CAVOK 17/12 Q1021 NOSIG RMK O
Zeitraffer heute
2017-09-22 00:14:56
LSZR 212150Z AUTO 11002KT CAVOK 09/08 Q1020
Zeitraffer gestern
2017-09-21 00:00:00
LSZR 202150Z AUTO 07003KT 040V100 CAVOK 07/06 Q1023
Zeitraffer vor 3 Tagen
2017-09-19 00:14:56
LSZR 182150Z AUTO 10002KT 9999 NCD 09/07 Q1018